createdAt,value
2022-11-24T00:12:43.631Z,9.50
2022-11-24T00:32:43.642Z,9.68
2022-11-24T00:52:43.668Z,9.62
2022-11-24T01:12:43.663Z,9.56
2022-11-24T01:32:43.568Z,9.62
2022-11-24T01:52:43.575Z,9.62
2022-11-24T02:12:43.586Z,9.75
2022-11-24T02:32:43.587Z,9.62
2022-11-24T02:52:43.599Z,9.81
2022-11-24T03:12:43.603Z,9.62
2022-11-24T03:32:43.572Z,9.68
2022-11-24T03:52:43.577Z,9.75
2022-11-24T04:12:43.585Z,9.62
2022-11-24T04:32:43.498Z,9.75
2022-11-24T04:52:43.508Z,9.68
2022-11-24T05:12:43.583Z,9.62
2022-11-24T05:32:43.528Z,9.75
2022-11-24T05:52:43.534Z,9.56
2022-11-24T06:12:43.482Z,9.75
2022-11-24T06:32:43.455Z,9.62
2022-11-24T06:52:43.466Z,9.50
2022-11-24T07:12:43.472Z,9.75
2022-11-24T07:32:43.508Z,9.56
2022-11-24T07:52:43.495Z,9.75
2022-11-24T08:12:43.416Z,9.56
2022-11-24T08:32:43.409Z,9.68
2022-11-24T08:52:43.423Z,9.68
2022-11-24T09:12:43.432Z,9.81
2022-11-24T09:32:43.447Z,9.62
2022-11-24T09:52:43.447Z,9.62
2022-11-24T10:12:43.373Z,9.56
2022-11-24T10:32:43.366Z,9.68
2022-11-24T10:52:43.459Z,9.68
2022-11-24T11:12:43.442Z,9.62
2022-11-24T11:32:43.305Z,9.68
2022-11-24T11:52:43.307Z,9.62
2022-11-24T12:12:43.320Z,9.81
2022-11-24T12:32:43.435Z,9.87
2022-11-24T12:52:43.353Z,9.75
2022-11-24T13:12:43.419Z,9.87
2022-11-24T13:32:43.438Z,9.75
2022-11-24T13:52:43.482Z,9.75
2022-11-24T14:12:43.447Z,9.75
2022-11-24T14:32:43.307Z,9.81
2022-11-24T14:52:43.353Z,9.81
2022-11-24T15:12:43.399Z,9.87
2022-11-24T15:32:43.220Z,9.62
2022-11-24T15:52:43.233Z,9.62
2022-11-24T16:12:43.321Z,9.75
2022-11-24T16:32:43.159Z,9.62
2022-11-24T16:52:43.193Z,9.68
2022-11-24T17:12:43.317Z,9.87
2022-11-24T17:32:43.304Z,9.75
2022-11-24T17:52:43.159Z,9.87
2022-11-24T18:12:43.199Z,9.75
2022-11-24T18:32:43.129Z,9.62
2022-11-24T18:52:43.140Z,9.56
2022-11-24T19:12:43.246Z,9.68
2022-11-24T19:32:43.237Z,9.68
2022-11-24T19:52:43.174Z,9.56
2022-11-24T20:12:43.213Z,9.56
2022-11-24T20:32:43.223Z,9.43
2022-11-24T20:52:43.193Z,9.31
2022-11-24T21:12:43.175Z,9.43
2022-11-24T21:32:43.062Z,9.18
2022-11-24T21:52:43.118Z,9.18
2022-11-24T22:12:43.288Z,9.25
2022-11-24T22:32:43.085Z,9.12
2022-11-24T22:52:43.095Z,9.25
2022-11-24T23:12:43.105Z,9.06
2022-11-24T23:32:43.119Z,9.06
2022-11-24T23:52:43.118Z,9.31
